Página principal
METAR-TAF:

METAR-TAF

Aeroportos :

Aeroporto de Copenhaga

Copenhaga, Dinamarca

latitude: 55-37N, longitude: 012-39E, altura: 5 m

Observação actual do tempo

O boletim foi feito há 19 minutos, às 05:50 UTC
Vento 6 kt de sul
Temperatura 10°C
Humidade 93%
Pressão 1029 hPa
Visibilidade: 4600 m
neblina

METAR: EKCH 150550Z 18006KT 4600 BR NSC 10/09 Q1029 TEMPO 5000

Hora: 07:09 (06:09 UTC)

Previsão

O boletim foi feito há 1 hora e 7 minutos, às 05:02 UTC
Previsão válida de 15 às 06 UTC a 16 às 06 UTC
Vento 5 kt de sul
Visibilidade 10 km ou mais
Nuvens fragmentadasa uma altura de 1500 ft
Temporariamente
de 15 às 06 UTC a 15 às 10 UTC
Visibilidade: 4000 m
Nuvens fragmentadasa uma altura de 800 ft
neblina
Temporariamente
de 15 às 16 UTC a 16 às 04 UTC
Nuvens fragmentadasa uma altura de 1000 ft
Tornando-se
de 15 às 19 UTC a 15 às 21 UTC
Vento 15 kt de su-sudeste

TAF: EKCH 150502Z 1506/1606 19005KT 9999 BKN015 TEMPO 1506/1510 4000 BR BKN008 TEMPO 1516/1604 BKN010 BECMG 1519/1521 15015KT

Observações e previsões do tempo de mais de 4000 aeroportos (mensagens METAR e TAF).

As estações disponíveis são os pontos amarelos e vermelhos sobre o mapa.

Mova o rato sobre o mapa para ver o nome da estação.

Depois clique no ponto para visualizar as observações e previsões meteorológicas.

Para alterar o mapa : clique nos botões verdes com uma cruz preta para aumentar o zoom; no botão verde com uma pitada de zoom; ou nas setas verdes para mapas adjacentes.


METAR-TAF: